createdAt,value
2023-02-28T00:02:11.019Z,100007.02
2023-02-28T00:07:13.114Z,100007.19
2023-02-28T00:12:16.179Z,100004.64
2023-02-28T00:17:23.025Z,100006.95
2023-02-28T00:22:31.841Z,100005.04
2023-02-28T00:27:35.574Z,100011.90
2023-02-28T00:32:40.341Z,100013.73
2023-02-28T00:37:43.647Z,100010.93
2023-02-28T00:42:47.156Z,100018.20
2023-02-28T00:47:51.002Z,100020.02
2023-02-28T00:52:56.022Z,100022.18
2023-02-28T00:57:58.211Z,100022.77
2023-02-28T01:03:01.649Z,100026.77
2023-02-28T01:08:04.636Z,100026.25
2023-02-28T01:13:07.229Z,100029.34
2023-02-28T01:18:12.309Z,100025.79
2023-02-28T01:23:14.493Z,100020.34
2023-02-28T01:28:17.302Z,100017.04
2023-02-28T01:33:20.268Z,100008.57
2023-02-28T01:38:23.650Z,100009.19
2023-02-28T01:43:32.177Z,100007.63
2023-02-28T01:48:41.023Z,100001.51
2023-02-28T01:53:50.245Z,99996.23
2023-02-28T01:58:53.941Z,99997.77
2023-02-28T02:04:02.100Z,99997.84
2023-02-28T02:09:04.661Z,99998.35
2023-02-28T02:14:36.867Z,99998.95
2023-02-28T02:20:14.060Z,99995.39
2023-02-28T02:25:35.056Z,99995.66
2023-02-28T02:31:04.573Z,99994.45
2023-02-28T02:36:38.680Z,99990.69
2023-02-28T02:41:51.457Z,99989.17
2023-02-28T02:47:02.276Z,99998.45
2023-02-28T02:52:12.031Z,99990.78
2023-02-28T02:57:37.050Z,99992.63
2023-02-28T03:02:42.461Z,99994.91
2023-02-28T03:07:47.108Z,100002.69
2023-02-28T03:13:01.647Z,100003.50
2023-02-28T03:18:12.811Z,100010.28
2023-02-28T03:23:20.559Z,100005.83
2023-02-28T03:28:46.470Z,100004.48
2023-02-28T03:33:56.464Z,100004.73
2023-02-28T03:39:13.025Z,100010.81
2023-02-28T03:44:25.978Z,100014.91
2023-02-28T03:49:33.934Z,100018.67
2023-02-28T03:54:45.503Z,100014.67
2023-02-28T03:59:55.542Z,100018.36
2023-02-28T04:04:57.825Z,100023.24
2023-02-28T04:10:00.293Z,100026.31
2023-02-28T04:15:02.311Z,100026.50
2023-02-28T04:20:10.207Z,100026.79
2023-02-28T04:25:12.789Z,100032.04
2023-02-28T04:30:15.650Z,100037.07
2023-02-28T04:35:18.679Z,100039.15
2023-02-28T04:40:21.180Z,100045.24
2023-02-28T04:45:23.863Z,100051.29
2023-02-28T04:50:26.649Z,100050.15
2023-02-28T04:55:29.134Z,100052.73
2023-02-28T05:00:31.579Z,100050.02
2023-02-28T05:05:33.849Z,100050.55
2023-02-28T05:10:37.279Z,100052.53
2023-02-28T05:15:39.157Z,100050.11
2023-02-28T05:20:41.081Z,100049.29
2023-02-28T05:25:43.400Z,100054.66
2023-02-28T05:30:45.294Z,100058.70
2023-02-28T05:35:48.055Z,100060.83
2023-02-28T05:40:50.450Z,100069.77
2023-02-28T05:45:52.617Z,100069.69
2023-02-28T05:50:54.697Z,100072.03
2023-02-28T05:55:57.907Z,100080.63
2023-02-28T06:01:01.381Z,100081.01
2023-02-28T06:06:03.476Z,100090.73
2023-02-28T06:11:05.732Z,100090.80
2023-02-28T06:16:09.036Z,100097.54
2023-02-28T06:21:11.142Z,100103.09
2023-02-28T06:26:13.132Z,100105.96
2023-02-28T06:31:17.835Z,100112.64
2023-02-28T06:36:19.931Z,100117.21
2023-02-28T06:41:25.130Z,100122.14
2023-02-28T06:46:27.221Z,100120.66
2023-02-28T06:51:29.963Z,100121.42
2023-02-28T06:56:32.335Z,100122.99
2023-02-28T07:01:35.052Z,100121.02
2023-02-28T07:06:39.417Z,100131.79
2023-02-28T07:11:43.495Z,100137.98
2023-02-28T07:16:46.658Z,100138.25
2023-02-28T07:21:48.877Z,100139.85
2023-02-28T07:26:50.846Z,100148.27
2023-02-28T07:31:54.295Z,100147.08
2023-02-28T07:36:56.736Z,100146.79
2023-02-28T07:41:58.704Z,100142.90
2023-02-28T07:47:01.304Z,100142.38
2023-02-28T07:52:05.072Z,100142.30
2023-02-28T07:57:07.082Z,100145.60
2023-02-28T08:02:14.747Z,100147.45
2023-02-28T08:07:18.147Z,100153.63
2023-02-28T08:12:20.229Z,100150.24
2023-02-28T08:17:22.191Z,100152.28
2023-02-28T08:22:24.123Z,100148.77
2023-02-28T08:27:26.111Z,100151.53
2023-02-28T08:32:30.146Z,100148.80
2023-02-28T08:37:32.592Z,100151.52
2023-02-28T08:42:34.563Z,100146.27
2023-02-28T08:47:36.501Z,100150.75
2023-02-28T08:52:39.493Z,100144.31
2023-02-28T08:57:50.987Z,100151.26
2023-02-28T09:03:02.996Z,100150.00
2023-02-28T09:08:05.169Z,100151.41
2023-02-28T09:13:07.650Z,100153.70
2023-02-28T09:18:09.878Z,100149.67
2023-02-28T09:23:13.812Z,100151.00
2023-02-28T09:28:18.835Z,100144.34
2023-02-28T09:33:22.164Z,100146.81
2023-02-28T09:38:24.241Z,100148.13
2023-02-28T09:43:33.367Z,100148.27
2023-02-28T09:48:41.273Z,100148.61
2023-02-28T09:53:45.739Z,100151.54
2023-02-28T09:58:59.822Z,100157.83
2023-02-28T10:04:09.204Z,100158.84
2023-02-28T10:09:25.665Z,100163.14
2023-02-28T10:14:30.861Z,100159.67
2023-02-28T10:19:43.901Z,100159.75
2023-02-28T10:24:49.048Z,100154.80
2023-02-28T10:29:53.637Z,100147.02
2023-02-28T10:35:08.573Z,100144.55
2023-02-28T10:40:36.643Z,100150.00
2023-02-28T10:45:39.816Z,100148.00
2023-02-28T10:50:48.026Z,100137.43
2023-02-28T10:56:07.790Z,100133.99
2023-02-28T11:01:16.309Z,100128.36
2023-02-28T11:06:32.062Z,100122.95
2023-02-28T11:11:44.283Z,100118.03
2023-02-28T11:16:46.292Z,100113.65
2023-02-28T11:21:57.772Z,100104.98
2023-02-28T11:27:00.040Z,100102.56
2023-02-28T11:32:14.541Z,100096.08
2023-02-28T11:37:19.976Z,100087.52
2023-02-28T11:42:46.759Z,100078.86
2023-02-28T11:48:07.876Z,100072.83
2023-02-28T11:53:35.327Z,100071.80
2023-02-28T11:58:56.296Z,100066.34
2023-02-28T12:04:11.048Z,100055.29
2023-02-28T12:09:16.156Z,100053.05
2023-02-28T12:14:56.476Z,100049.86
2023-02-28T12:20:15.030Z,100050.44
2023-02-28T12:25:29.772Z,100050.46
2023-02-28T12:30:54.265Z,100047.48
2023-02-28T12:36:00.786Z,100046.66
2023-02-28T12:41:21.540Z,100043.92
2023-02-28T12:46:51.918Z,100036.31
2023-02-28T12:51:54.319Z,100031.53
2023-02-28T12:57:19.737Z,100027.20
2023-02-28T13:03:01.623Z,100024.31
2023-02-28T13:08:41.936Z,100029.64
2023-02-28T13:13:46.400Z,100025.30
2023-02-28T13:18:49.648Z,100023.70
2023-02-28T13:23:59.081Z,100023.85
2023-02-28T13:29:11.029Z,100022.36
2023-02-28T13:34:17.263Z,100019.88
2023-02-28T13:39:40.584Z,100013.52
2023-02-28T13:45:27.124Z,100012.25
2023-02-28T13:50:39.648Z,100010.71
2023-02-28T13:55:54.192Z,99998.71
2023-02-28T14:01:07.098Z,100002.13
2023-02-28T14:06:11.155Z,99999.02
2023-02-28T14:11:45.321Z,99996.45
2023-02-28T14:16:51.286Z,99992.86
2023-02-28T14:22:23.090Z,99989.10
2023-02-28T14:27:37.414Z,99987.13
2023-02-28T14:33:10.354Z,99983.67
2023-02-28T14:38:25.408Z,99979.38
2023-02-28T14:43:29.713Z,99975.11
2023-02-28T14:48:32.600Z,99969.17
2023-02-28T14:53:38.680Z,99966.75
2023-02-28T14:58:41.109Z,99971.58
2023-02-28T15:03:45.839Z,99972.48
2023-02-28T15:08:48.048Z,99973.90
2023-02-28T15:13:53.172Z,99967.63
2023-02-28T15:19:00.436Z,99969.29
2023-02-28T15:24:34.855Z,99966.41
2023-02-28T15:30:10.746Z,99963.62
2023-02-28T15:35:41.904Z,99965.55
2023-02-28T15:40:57.139Z,99970.46
2023-02-28T15:46:07.506Z,99967.59
2023-02-28T15:51:23.827Z,99967.67
2023-02-28T15:56:30.550Z,99967.05
2023-02-28T16:01:40.505Z,99973.13
2023-02-28T16:06:45.499Z,99975.25
2023-02-28T16:11:55.641Z,99974.59
2023-02-28T16:17:06.661Z,99976.93
2023-02-28T16:22:10.665Z,99977.20
2023-02-28T16:27:23.749Z,99973.98
2023-02-28T16:32:25.765Z,99975.83
2023-02-28T16:37:28.325Z,99980.66
2023-02-28T16:42:32.613Z,99985.49
2023-02-28T16:47:35.189Z,99986.58
2023-02-28T16:52:37.516Z,99991.82
2023-02-28T16:57:41.243Z,99994.19
2023-02-28T17:02:44.127Z,100000.44
2023-02-28T17:07:47.996Z,100003.77
2023-02-28T17:12:50.824Z,100004.90
2023-02-28T17:17:52.784Z,100006.23
2023-02-28T17:22:55.812Z,100012.11
2023-02-28T17:27:58.239Z,100013.38
2023-02-28T17:33:00.214Z,100014.02
2023-02-28T17:38:02.660Z,100012.14
2023-02-28T17:43:05.215Z,100010.63
2023-02-28T17:48:07.815Z,100013.29
2023-02-28T17:53:09.732Z,100014.43
2023-02-28T17:58:13.709Z,100014.38
2023-02-28T18:03:16.299Z,100014.81
2023-02-28T18:08:18.310Z,100018.17
2023-02-28T18:13:20.494Z,100014.61
2023-02-28T18:18:22.747Z,100012.98
2023-02-28T18:23:25.472Z,100017.70
2023-02-28T18:28:28.031Z,100015.72
2023-02-28T18:33:30.191Z,100019.77
2023-02-28T18:38:34.461Z,100015.48
2023-02-28T18:43:38.613Z,100016.76
2023-02-28T18:48:41.768Z,100022.64
2023-02-28T18:53:44.299Z,100020.06
2023-02-28T18:58:46.741Z,100017.95
2023-02-28T19:03:50.436Z,100019.56
2023-02-28T19:08:59.704Z,100020.10
2023-02-28T19:14:02.743Z,100018.19
2023-02-28T19:19:05.686Z,100017.27
2023-02-28T19:24:07.942Z,100015.05
2023-02-28T19:29:10.273Z,100009.52
2023-02-28T19:34:12.782Z,100015.09
2023-02-28T19:39:15.090Z,100020.42
2023-02-28T19:44:17.600Z,100021.21
2023-02-28T19:49:19.552Z,100021.27
2023-02-28T19:54:22.294Z,100022.60
2023-02-28T19:59:35.793Z,100015.81
2023-02-28T20:04:41.665Z,100014.04
2023-02-28T20:09:45.701Z,100011.52
2023-02-28T20:14:49.255Z,100014.45
2023-02-28T20:19:51.925Z,100019.66
2023-02-28T20:24:54.613Z,100020.64
2023-02-28T20:30:09.686Z,100023.23
2023-02-28T20:35:11.994Z,100022.65
2023-02-28T20:40:14.500Z,100021.89
2023-02-28T20:45:17.527Z,100019.04
2023-02-28T20:50:20.246Z,100012.80
2023-02-28T20:55:22.291Z,100009.63
2023-02-28T21:00:26.492Z,100011.47
2023-02-28T21:05:29.253Z,100010.70
2023-02-28T21:10:32.523Z,100009.42
2023-02-28T21:15:38.656Z,100006.98
2023-02-28T21:20:40.701Z,100007.23
2023-02-28T21:25:43.632Z,100008.79
2023-02-28T21:30:45.994Z,100006.36
2023-02-28T21:35:48.813Z,100008.27
2023-02-28T21:40:51.488Z,100014.58
2023-02-28T21:45:53.998Z,100016.03
2023-02-28T21:51:04.339Z,100017.20
2023-02-28T21:56:11.395Z,100012.42
2023-02-28T22:01:15.409Z,100011.95
2023-02-28T22:06:24.410Z,100012.35
2023-02-28T22:11:27.996Z,100011.34
2023-02-28T22:16:44.168Z,100014.80
2023-02-28T22:21:53.881Z,100018.67
2023-02-28T22:26:56.234Z,100021.68
2023-02-28T22:31:58.441Z,100017.06
2023-02-28T22:37:01.168Z,100016.45
2023-02-28T22:42:03.719Z,100033.37
2023-02-28T22:47:07.412Z,100041.08
2023-02-28T22:52:11.375Z,100037.45
2023-02-28T22:57:14.649Z,100036.05
2023-02-28T23:02:16.667Z,100031.75
2023-02-28T23:07:19.012Z,100032.91
2023-02-28T23:12:21.642Z,100034.48
2023-02-28T23:17:23.912Z,100045.00
2023-02-28T23:22:25.875Z,100047.27
2023-02-28T23:27:28.574Z,100048.64
2023-02-28T23:32:30.949Z,100046.66
2023-02-28T23:37:34.404Z,100047.57
2023-02-28T23:42:37.568Z,100043.63
2023-02-28T23:47:39.549Z,100040.11
2023-02-28T23:52:41.967Z,100038.92
2023-02-28T23:57:44.554Z,100041.39
